createdAt,value
2022-11-05T00:01:42.624Z,8.09
2022-11-05T00:04:08.950Z,8.09
2022-11-05T00:06:35.215Z,8.11
2022-11-05T00:09:01.457Z,8.12
2022-11-05T00:11:27.686Z,8.07
2022-11-05T00:13:53.910Z,8.07
2022-11-05T00:16:20.173Z,8.04
2022-11-05T00:18:46.429Z,8.03
2022-11-05T00:21:12.675Z,8.00
2022-11-05T00:23:38.908Z,7.99
2022-11-05T00:26:05.189Z,7.97
2022-11-05T00:28:31.429Z,8.01
2022-11-05T00:30:57.664Z,8.03
2022-11-05T00:33:24.396Z,8.05
2022-11-05T00:35:50.649Z,8.06
2022-11-05T00:38:16.897Z,8.00
2022-11-05T00:40:43.149Z,7.97
2022-11-05T00:43:09.665Z,8.00
2022-11-05T00:45:36.210Z,7.97
2022-11-05T00:48:02.455Z,7.96
2022-11-05T00:50:28.698Z,7.96
2022-11-05T00:52:54.925Z,7.96
2022-11-05T00:55:21.162Z,7.96
2022-11-05T00:57:47.407Z,7.95
2022-11-05T01:00:13.690Z,7.93
2022-11-05T01:02:40.065Z,7.96
2022-11-05T01:05:06.435Z,7.94
2022-11-05T01:07:32.692Z,7.93
2022-11-05T01:09:58.943Z,7.96
2022-11-05T01:12:25.703Z,7.98
2022-11-05T01:14:53.450Z,8.00
2022-11-05T01:17:19.698Z,7.99
2022-11-05T01:19:45.942Z,8.02
2022-11-05T01:22:12.172Z,8.02
2022-11-05T01:24:38.415Z,8.01
2022-11-05T01:27:04.661Z,8.02
2022-11-05T01:29:30.885Z,8.03
2022-11-05T01:31:57.161Z,8.02
2022-11-05T01:34:23.408Z,8.04
2022-11-05T01:36:49.647Z,8.06
2022-11-05T01:39:16.046Z,8.06
2022-11-05T01:41:42.341Z,8.06
2022-11-05T01:44:08.601Z,8.11
2022-11-05T01:46:36.956Z,8.11
2022-11-05T01:49:03.632Z,8.14
2022-11-05T01:51:32.948Z,8.16
2022-11-05T01:53:59.287Z,8.16
2022-11-05T01:56:25.640Z,8.15
2022-11-05T01:58:51.921Z,8.13
2022-11-05T02:01:18.376Z,8.14
2022-11-05T02:03:44.712Z,8.14
2022-11-05T02:06:10.963Z,8.15
2022-11-05T02:08:37.197Z,8.14
2022-11-05T02:11:03.538Z,8.12
2022-11-05T02:13:29.794Z,8.10
2022-11-05T02:15:56.039Z,8.14
2022-11-05T02:18:22.307Z,8.18
2022-11-05T02:20:52.140Z,8.20
2022-11-05T02:23:18.714Z,8.21
2022-11-05T02:25:44.966Z,8.21
2022-11-05T02:28:11.218Z,8.20
2022-11-05T02:30:37.445Z,8.21
2022-11-05T02:33:03.677Z,8.20
2022-11-05T02:35:29.915Z,8.19
2022-11-05T02:37:56.149Z,8.20
2022-11-05T02:40:22.419Z,8.23
2022-11-05T02:42:48.648Z,8.22
2022-11-05T02:45:14.877Z,8.22
2022-11-05T02:47:41.113Z,8.24
2022-11-05T02:50:07.359Z,8.24
2022-11-05T02:52:33.608Z,8.28
2022-11-05T02:54:59.856Z,8.28
2022-11-05T02:57:26.089Z,8.29
2022-11-05T02:59:52.336Z,8.27
2022-11-05T03:02:18.655Z,8.27
2022-11-05T03:04:44.985Z,8.26
2022-11-05T03:07:11.239Z,8.23
2022-11-05T03:09:37.484Z,8.25
2022-11-05T03:12:03.748Z,8.26
2022-11-05T03:14:29.982Z,8.27
2022-11-05T03:16:56.211Z,8.25
2022-11-05T03:19:22.443Z,8.24
2022-11-05T03:21:48.692Z,8.25
2022-11-05T03:24:14.951Z,8.27
2022-11-05T03:26:41.178Z,8.26
2022-11-05T03:29:07.432Z,8.26
2022-11-05T03:31:33.683Z,8.27
2022-11-05T03:33:59.934Z,8.27
2022-11-05T03:36:26.182Z,8.28
2022-11-05T03:38:52.427Z,8.27
2022-11-05T03:41:18.687Z,8.27
2022-11-05T03:43:44.930Z,8.28
2022-11-05T03:46:11.187Z,8.27
2022-11-05T03:48:37.469Z,8.27
2022-11-05T03:51:03.830Z,8.25
2022-11-05T03:53:30.081Z,8.24
2022-11-05T03:55:56.341Z,8.26
2022-11-05T03:58:22.591Z,8.27
2022-11-05T04:00:48.832Z,8.28
2022-11-05T04:03:15.070Z,8.25
2022-11-05T04:05:41.312Z,8.25
2022-11-05T04:08:12.962Z,8.27
2022-11-05T04:10:40.465Z,8.29
2022-11-05T04:13:06.709Z,8.28
2022-11-05T04:15:32.944Z,8.27
2022-11-05T04:17:59.170Z,8.28
2022-11-05T04:20:25.419Z,8.30
2022-11-05T04:22:51.671Z,8.27
2022-11-05T04:25:17.913Z,8.27
2022-11-05T04:27:44.164Z,8.30
2022-11-05T04:30:10.424Z,8.30
2022-11-05T04:32:36.665Z,8.27
2022-11-05T04:35:02.957Z,8.26
2022-11-05T04:37:29.197Z,8.27
2022-11-05T04:39:55.438Z,8.27
2022-11-05T04:42:21.712Z,8.32
2022-11-05T04:44:47.959Z,8.29
2022-11-05T04:47:14.203Z,8.30
2022-11-05T04:49:40.434Z,8.33
2022-11-05T04:52:06.693Z,8.31
2022-11-05T04:54:33.011Z,8.30
2022-11-05T04:56:59.424Z,8.32
2022-11-05T04:59:25.664Z,8.33
2022-11-05T05:01:51.923Z,8.33
2022-11-05T05:04:18.220Z,8.32
2022-11-05T05:06:44.479Z,8.35
2022-11-05T05:09:10.732Z,8.33
2022-11-05T05:11:36.980Z,8.32
2022-11-05T05:14:03.224Z,8.32
2022-11-05T05:16:29.459Z,8.33
2022-11-05T05:18:55.694Z,8.34
2022-11-05T05:21:21.934Z,8.32
2022-11-05T05:23:48.162Z,8.33
2022-11-05T05:26:14.421Z,8.31
2022-11-05T05:28:40.684Z,8.31
2022-11-05T05:31:06.916Z,8.27
2022-11-05T05:33:33.158Z,8.30
2022-11-05T05:35:59.407Z,8.31
2022-11-05T05:38:25.662Z,8.31
2022-11-05T05:40:51.912Z,8.30
2022-11-05T05:43:18.158Z,8.28
2022-11-05T05:45:44.430Z,8.28
2022-11-05T05:48:10.669Z,8.30
2022-11-05T05:50:36.921Z,8.31
2022-11-05T05:53:03.164Z,8.31
2022-11-05T05:55:29.401Z,8.29
2022-11-05T05:57:55.667Z,8.28
2022-11-05T06:00:21.920Z,8.27
2022-11-05T06:02:48.278Z,8.24
2022-11-05T06:05:14.617Z,8.28
2022-11-05T06:07:40.850Z,8.27
2022-11-05T06:10:07.105Z,8.25
2022-11-05T06:12:33.365Z,8.21
2022-11-05T06:14:59.619Z,8.24
2022-11-05T06:17:25.877Z,8.21
2022-11-05T06:19:52.122Z,8.24
2022-11-05T06:22:18.363Z,8.24
2022-11-05T06:24:44.693Z,8.27
2022-11-05T06:27:10.957Z,8.26
2022-11-05T06:29:37.267Z,8.28
2022-11-05T06:32:03.519Z,8.27
2022-11-05T06:34:29.758Z,8.29
2022-11-05T06:36:56.000Z,8.27
2022-11-05T06:39:22.244Z,8.27
2022-11-05T06:42:16.576Z,8.27
2022-11-05T06:44:34.705Z,8.26
2022-11-05T06:47:00.944Z,8.25
2022-11-05T06:49:27.203Z,8.22
2022-11-05T06:51:53.464Z,8.23
2022-11-05T06:54:19.693Z,8.23
2022-11-05T06:56:45.941Z,8.24
2022-11-05T06:59:12.260Z,8.26
2022-11-05T07:01:38.599Z,8.28
2022-11-05T07:04:04.903Z,8.27
2022-11-05T07:06:36.670Z,8.28
2022-11-05T07:09:03.286Z,8.28
2022-11-05T07:11:29.532Z,8.29
2022-11-05T07:13:55.798Z,8.30
2022-11-05T07:16:22.049Z,8.32
2022-11-05T07:18:48.367Z,8.33
2022-11-05T07:21:14.619Z,8.32
2022-11-05T07:23:40.867Z,8.33
2022-11-05T07:26:07.117Z,8.35
2022-11-05T07:28:33.354Z,8.35
2022-11-05T07:30:59.591Z,8.38
2022-11-05T07:33:25.845Z,8.40
2022-11-05T07:35:52.095Z,8.40
2022-11-05T07:38:18.342Z,8.39
2022-11-05T07:40:44.596Z,8.42
2022-11-05T07:43:11.091Z,8.43
2022-11-05T07:45:37.485Z,8.47
2022-11-05T07:48:03.749Z,8.49
2022-11-05T07:50:29.989Z,8.48
2022-11-05T07:52:56.239Z,8.48
2022-11-05T07:55:22.487Z,8.48
2022-11-05T07:57:48.740Z,8.52
2022-11-05T08:00:15.010Z,8.53
2022-11-05T08:02:41.483Z,8.53
2022-11-05T08:05:07.926Z,8.54
2022-11-05T08:07:34.169Z,8.59
2022-11-05T08:10:00.445Z,8.61
2022-11-05T08:12:26.688Z,8.63
2022-11-05T08:14:52.945Z,8.64
2022-11-05T08:17:19.233Z,8.66
2022-11-05T08:19:45.487Z,8.65
2022-11-05T08:22:11.749Z,8.68
2022-11-05T08:24:38.001Z,8.72
2022-11-05T08:27:04.285Z,8.76
2022-11-05T08:29:30.543Z,8.79
2022-11-05T08:31:56.797Z,8.80
2022-11-05T08:34:23.114Z,8.82
2022-11-05T08:36:49.361Z,8.83
2022-11-05T08:39:17.112Z,8.84
2022-11-05T08:41:43.482Z,8.84
2022-11-05T08:44:09.752Z,8.83
2022-11-05T08:46:41.272Z,8.85
2022-11-05T08:49:08.000Z,8.86
2022-11-05T08:51:34.360Z,8.85
2022-11-05T08:54:00.594Z,8.86
2022-11-05T08:56:26.843Z,8.87
2022-11-05T08:58:53.132Z,8.87
2022-11-05T09:01:19.495Z,8.89
2022-11-05T09:03:45.819Z,8.90
2022-11-05T09:06:12.071Z,8.91
2022-11-05T09:08:38.316Z,8.91
2022-11-05T09:11:04.605Z,8.93
2022-11-05T09:13:30.843Z,8.90
2022-11-05T09:15:57.099Z,8.89
2022-11-05T09:18:23.370Z,8.91
2022-11-05T09:20:49.623Z,8.90
2022-11-05T09:23:15.922Z,8.89
2022-11-05T09:25:42.179Z,8.92
2022-11-05T09:28:08.413Z,8.92
2022-11-05T09:30:34.645Z,8.93
2022-11-05T09:33:00.892Z,8.94
2022-11-05T09:35:27.132Z,8.98
2022-11-05T09:37:58.205Z,9.02
2022-11-05T09:40:26.945Z,9.07
2022-11-05T09:42:53.240Z,9.07
2022-11-05T09:45:19.479Z,9.10
2022-11-05T09:47:45.725Z,9.14
2022-11-05T09:50:11.972Z,9.17
2022-11-05T09:52:38.220Z,9.17
2022-11-05T09:55:04.504Z,9.20
2022-11-05T09:57:30.742Z,9.25
2022-11-05T09:59:57.189Z,9.27
2022-11-05T10:02:23.499Z,9.31
2022-11-05T10:04:49.866Z,9.35
2022-11-05T10:07:16.160Z,9.37
2022-11-05T10:09:42.421Z,9.43
2022-11-05T10:12:08.670Z,9.49
2022-11-05T10:14:34.917Z,9.54
2022-11-05T10:17:01.176Z,9.61
2022-11-05T10:19:27.466Z,9.63
2022-11-05T10:22:06.248Z,9.64
2022-11-05T10:24:33.105Z,9.70
2022-11-05T10:26:59.355Z,9.74
2022-11-05T10:29:25.592Z,9.77
2022-11-05T10:31:51.843Z,9.79
2022-11-05T10:34:18.090Z,9.80
2022-11-05T10:36:44.351Z,9.82
2022-11-05T10:39:10.594Z,9.91
2022-11-05T10:41:36.841Z,9.96
2022-11-05T10:44:03.125Z,9.97
2022-11-05T10:46:29.374Z,10.02
2022-11-05T10:48:55.623Z,10.03
2022-11-05T10:51:21.872Z,10.09
2022-11-05T10:53:48.142Z,10.21
2022-11-05T10:56:14.387Z,10.27
2022-11-05T10:58:40.627Z,10.37
2022-11-05T11:01:06.917Z,10.43
2022-11-05T11:03:33.240Z,10.52
2022-11-05T11:05:59.500Z,10.56
2022-11-05T11:08:25.752Z,10.55
2022-11-05T11:10:52.002Z,10.56
2022-11-05T11:13:18.246Z,10.50
2022-11-05T11:15:46.043Z,10.53
2022-11-05T11:18:12.295Z,10.61
2022-11-05T11:20:38.528Z,10.63
2022-11-05T11:23:04.778Z,10.75
2022-11-05T11:25:31.028Z,10.77
2022-11-05T11:27:57.285Z,10.77
2022-11-05T11:30:23.532Z,10.72
2022-11-05T11:32:49.784Z,10.74
2022-11-05T11:35:16.039Z,10.72
2022-11-05T11:37:42.354Z,10.75
2022-11-05T11:40:10.107Z,10.74
2022-11-05T11:42:36.530Z,10.71
2022-11-05T11:45:02.850Z,10.71
2022-11-05T11:47:29.105Z,10.74
2022-11-05T11:49:55.377Z,10.76
2022-11-05T11:52:21.627Z,10.77
2022-11-05T11:54:47.891Z,10.82
2022-11-05T11:57:15.228Z,10.84
2022-11-05T12:00:07.295Z,10.85
2022-11-05T12:02:27.867Z,10.92
2022-11-05T12:04:54.187Z,10.91
2022-11-05T12:07:20.434Z,10.92
2022-11-05T12:09:46.682Z,10.97
2022-11-05T12:12:12.923Z,11.04
2022-11-05T12:14:42.393Z,11.13
2022-11-05T12:17:12.394Z,11.17
2022-11-05T12:19:38.641Z,11.17
2022-11-05T12:22:04.896Z,11.17
2022-11-05T12:24:31.228Z,11.18
2022-11-05T12:26:57.477Z,11.17
2022-11-05T12:29:23.724Z,11.22
2022-11-05T12:31:49.992Z,11.24
2022-11-05T12:34:16.231Z,11.21
2022-11-05T12:36:42.480Z,11.15
2022-11-05T12:39:08.745Z,11.16
2022-11-05T12:41:34.988Z,11.21
2022-11-05T12:44:01.232Z,11.28
2022-11-05T12:46:27.477Z,11.30
2022-11-05T12:48:53.758Z,11.33
2022-11-05T12:51:20.004Z,11.32
2022-11-05T12:53:46.245Z,11.28
2022-11-05T12:56:12.488Z,11.27
2022-11-05T12:58:38.833Z,11.27
2022-11-05T13:01:05.127Z,11.16
2022-11-05T13:03:31.378Z,11.18
2022-11-05T13:06:02.900Z,11.23
2022-11-05T13:08:31.841Z,11.24
2022-11-05T13:10:58.083Z,11.26
2022-11-05T13:13:24.346Z,11.20
2022-11-05T13:15:50.590Z,11.31
2022-11-05T13:18:16.837Z,11.32
2022-11-05T13:20:43.106Z,11.34
2022-11-05T13:23:09.659Z,11.31
2022-11-05T13:25:36.149Z,11.33
2022-11-05T13:28:02.390Z,11.35
2022-11-05T13:30:28.643Z,11.36
2022-11-05T13:32:54.894Z,11.39
2022-11-05T13:35:21.167Z,11.34
2022-11-05T13:37:47.466Z,11.32
2022-11-05T13:40:13.720Z,11.32
2022-11-05T13:42:39.986Z,11.32
2022-11-05T13:45:06.246Z,11.32
2022-11-05T13:47:32.493Z,11.34
2022-11-05T13:49:58.834Z,11.30
2022-11-05T13:52:25.103Z,11.33
2022-11-05T13:54:51.528Z,11.32
2022-11-05T13:57:17.800Z,11.29
2022-11-05T13:59:44.105Z,11.26
2022-11-05T14:02:10.564Z,11.26
2022-11-05T14:04:36.973Z,11.25
2022-11-05T14:07:03.228Z,11.25
2022-11-05T14:09:29.480Z,11.24
2022-11-05T14:11:55.714Z,11.27
2022-11-05T14:14:21.966Z,11.23
2022-11-05T14:16:48.213Z,11.25
2022-11-05T14:19:14.486Z,11.26
2022-11-05T14:21:40.752Z,11.29
2022-11-05T14:24:07.006Z,11.29
2022-11-05T14:26:33.330Z,11.29
2022-11-05T14:28:59.605Z,11.35
2022-11-05T14:31:47.436Z,11.41
2022-11-05T14:34:12.080Z,11.48
2022-11-05T14:36:38.322Z,11.50
2022-11-05T14:39:04.663Z,11.46
2022-11-05T14:41:30.925Z,11.44
2022-11-05T14:43:57.165Z,11.46
2022-11-05T14:46:23.402Z,11.40
2022-11-05T14:48:49.633Z,11.38
2022-11-05T14:51:15.865Z,11.32
2022-11-05T14:53:42.108Z,11.28
2022-11-05T14:56:08.336Z,11.20
2022-11-05T14:58:34.604Z,11.20
2022-11-05T15:01:00.945Z,11.16
2022-11-05T15:03:27.309Z,11.10
2022-11-05T15:05:53.605Z,11.05
2022-11-05T15:08:19.856Z,10.98
2022-11-05T15:10:46.120Z,10.94
2022-11-05T15:13:12.716Z,10.88
2022-11-05T15:15:39.167Z,10.85
2022-11-05T15:18:05.408Z,10.79
2022-11-05T15:20:37.182Z,10.76
2022-11-05T15:23:06.034Z,10.74
2022-11-05T15:25:32.292Z,10.69
2022-11-05T15:27:58.649Z,10.67
2022-11-05T15:30:25.244Z,10.62
2022-11-05T15:32:51.501Z,10.59
2022-11-05T15:35:17.875Z,10.57
2022-11-05T15:37:48.501Z,10.53
2022-11-05T15:40:18.750Z,10.50
2022-11-05T15:42:45.036Z,10.46
2022-11-05T15:45:11.272Z,10.43
2022-11-05T15:47:37.516Z,10.41
2022-11-05T15:50:03.809Z,10.37
2022-11-05T15:52:30.174Z,10.31
2022-11-05T15:54:56.434Z,10.27
2022-11-05T15:57:22.677Z,10.25
2022-11-05T15:59:48.999Z,10.22
2022-11-05T16:02:15.350Z,10.18
2022-11-05T16:04:41.641Z,10.15
2022-11-05T16:07:07.896Z,10.09
2022-11-05T16:09:34.144Z,10.03
2022-11-05T16:12:00.377Z,10.01
2022-11-05T16:14:26.712Z,9.98
2022-11-05T16:16:52.944Z,9.93
2022-11-05T16:19:19.204Z,9.91
2022-11-05T16:21:45.472Z,9.87
2022-11-05T16:24:11.709Z,9.85
2022-11-05T16:29:24.166Z,9.79
2022-11-05T16:31:50.413Z,9.77
2022-11-05T16:34:16.673Z,9.75
2022-11-05T16:36:42.932Z,9.73
2022-11-05T16:39:09.177Z,9.71
2022-11-05T16:41:35.430Z,9.76
2022-11-05T16:44:01.683Z,9.76
2022-11-05T16:46:27.963Z,9.74
2022-11-05T16:48:54.243Z,9.68
2022-11-05T16:51:26.243Z,9.65
2022-11-05T16:53:53.674Z,9.63
2022-11-05T16:56:19.928Z,9.58
2022-11-05T16:58:46.166Z,9.55
2022-11-05T17:01:12.458Z,9.51
2022-11-05T17:03:38.768Z,9.51
2022-11-05T17:06:05.014Z,9.49
2022-11-05T17:08:31.291Z,9.45
2022-11-05T17:10:57.568Z,9.43
2022-11-05T17:13:23.844Z,9.43
2022-11-05T17:15:50.097Z,9.37
2022-11-05T17:18:18.870Z,9.32
2022-11-05T17:20:45.522Z,9.28
2022-11-05T17:23:12.189Z,9.25
2022-11-05T17:25:38.644Z,9.26
2022-11-05T17:28:04.915Z,9.18
2022-11-05T17:30:31.184Z,9.18
2022-11-05T17:32:57.539Z,9.13
2022-11-05T17:35:23.809Z,9.10
2022-11-05T17:37:50.103Z,9.06
2022-11-05T17:40:16.373Z,9.02
2022-11-05T17:42:42.604Z,9.02
2022-11-05T17:45:08.850Z,9.00
2022-11-05T17:47:35.089Z,8.97
2022-11-05T17:50:01.365Z,8.92
2022-11-05T17:52:27.624Z,8.85
2022-11-05T17:54:53.892Z,8.83
2022-11-05T17:57:20.230Z,8.78
2022-11-05T17:59:46.473Z,8.78
2022-11-05T18:02:12.840Z,8.71
2022-11-05T18:04:39.267Z,8.69
2022-11-05T18:07:05.528Z,8.65
2022-11-05T18:09:31.772Z,8.64
2022-11-05T18:11:58.030Z,8.61
2022-11-05T18:14:24.395Z,8.61
2022-11-05T18:16:50.645Z,8.57
2022-11-05T18:19:16.894Z,8.52
2022-11-05T18:21:43.134Z,8.52
2022-11-05T18:24:09.357Z,8.48
2022-11-05T18:26:35.592Z,8.44
2022-11-05T18:29:01.835Z,8.41
2022-11-05T18:31:28.094Z,8.41
2022-11-05T18:33:54.397Z,8.39
2022-11-05T18:36:20.652Z,8.31
2022-11-05T18:38:46.906Z,8.28
2022-11-05T18:41:13.148Z,8.23
2022-11-05T18:43:39.384Z,8.19
2022-11-05T18:46:05.639Z,8.10
2022-11-05T18:48:31.868Z,8.07
2022-11-05T18:51:01.867Z,8.01
2022-11-05T18:53:28.449Z,7.98
2022-11-05T18:55:54.718Z,7.94
2022-11-05T18:58:20.973Z,7.88
2022-11-05T19:00:47.218Z,7.85
2022-11-05T19:03:13.492Z,7.84
2022-11-05T19:05:39.836Z,7.82
2022-11-05T19:08:06.084Z,7.80
2022-11-05T19:10:32.339Z,7.80
2022-11-05T19:12:58.615Z,7.79
2022-11-05T19:15:24.920Z,7.76
2022-11-05T19:17:51.150Z,7.70
2022-11-05T19:20:17.392Z,7.66
2022-11-05T19:22:43.671Z,7.66
2022-11-05T19:25:09.923Z,7.61
2022-11-05T19:27:36.190Z,7.60
2022-11-05T19:30:02.471Z,7.61
2022-11-05T19:32:28.754Z,7.59
2022-11-05T19:34:55.018Z,7.51
2022-11-05T19:37:21.268Z,7.44
2022-11-05T19:39:47.513Z,7.43
2022-11-05T19:42:13.748Z,7.39
2022-11-05T19:44:40.036Z,7.39
2022-11-05T19:47:06.263Z,7.39
2022-11-05T19:49:32.512Z,7.35
2022-11-05T19:51:58.762Z,7.31
2022-11-05T19:54:25.031Z,7.28
2022-11-05T19:56:51.267Z,7.26
2022-11-05T19:59:17.511Z,7.24
2022-11-05T20:01:43.885Z,7.22
2022-11-05T20:04:10.334Z,7.20
2022-11-05T20:06:36.603Z,7.20
2022-11-05T20:11:49.095Z,7.16
2022-11-05T20:14:15.344Z,7.13
2022-11-05T20:16:41.595Z,7.09
2022-11-05T20:19:07.843Z,7.10
2022-11-05T20:21:34.095Z,7.15
2022-11-05T20:24:00.358Z,7.20
2022-11-05T20:26:26.619Z,7.16
2022-11-05T20:28:52.868Z,7.16
2022-11-05T20:31:19.100Z,7.10
2022-11-05T20:33:45.330Z,7.06
2022-11-05T20:36:11.579Z,7.01
2022-11-05T20:38:37.820Z,7.03
2022-11-05T20:41:04.065Z,7.06
2022-11-05T20:43:30.674Z,7.06
2022-11-05T20:45:56.967Z,7.03
2022-11-05T20:48:23.209Z,6.98
2022-11-05T20:50:49.473Z,6.94
2022-11-05T20:53:15.737Z,6.93
2022-11-05T20:55:41.979Z,6.88
2022-11-05T20:58:08.231Z,6.90
2022-11-05T21:00:34.469Z,6.93
2022-11-05T21:03:00.882Z,6.97
2022-11-05T21:05:31.243Z,6.92
2022-11-05T21:08:00.591Z,6.89
2022-11-05T21:10:26.851Z,6.87
2022-11-05T21:12:53.122Z,6.83
2022-11-05T21:15:19.358Z,6.77
2022-11-05T21:17:45.601Z,6.75
2022-11-05T21:20:11.861Z,6.70
2022-11-05T21:22:38.116Z,6.69
2022-11-05T21:25:04.374Z,6.70
2022-11-05T21:27:30.630Z,6.66
2022-11-05T21:29:56.864Z,6.61
2022-11-05T21:32:23.143Z,6.63
2022-11-05T21:34:49.398Z,6.62
2022-11-05T21:37:15.649Z,6.51
2022-11-05T21:39:41.881Z,6.42
2022-11-05T21:42:08.168Z,6.42
2022-11-05T21:44:34.411Z,6.39
2022-11-05T21:47:00.679Z,6.39
2022-11-05T21:49:26.912Z,6.38
2022-11-05T21:51:53.162Z,6.34
2022-11-05T21:54:19.403Z,6.34
2022-11-05T21:56:45.656Z,6.34
2022-11-05T21:59:11.895Z,6.30
2022-11-05T22:01:38.298Z,6.26
2022-11-05T22:04:04.579Z,6.23
2022-11-05T22:06:30.831Z,6.18
2022-11-05T22:08:57.199Z,6.20
2022-11-05T22:11:23.467Z,6.22
2022-11-05T22:13:49.717Z,6.20
2022-11-05T22:16:15.990Z,6.20
2022-11-05T22:18:42.227Z,6.20
2022-11-05T22:21:08.468Z,6.20
2022-11-05T22:23:34.801Z,6.17
2022-11-05T22:26:01.050Z,6.14
2022-11-05T22:28:27.302Z,6.22
2022-11-05T22:30:53.554Z,6.23
2022-11-05T22:33:19.803Z,6.27
2022-11-05T22:35:46.055Z,6.24
2022-11-05T22:38:12.644Z,6.26
2022-11-05T22:40:39.125Z,6.28
2022-11-05T22:43:05.393Z,6.28
2022-11-05T22:45:31.655Z,6.32
2022-11-05T22:47:57.901Z,6.28
2022-11-05T22:50:24.233Z,6.28
2022-11-05T22:52:50.464Z,6.28
2022-11-05T22:55:16.744Z,6.28
2022-11-05T22:57:42.984Z,6.25
2022-11-05T23:00:09.294Z,6.28
2022-11-05T23:02:35.644Z,6.28
2022-11-05T23:05:01.955Z,6.26
2022-11-05T23:07:28.214Z,6.25
2022-11-05T23:09:54.512Z,6.26
2022-11-05T23:12:20.759Z,6.24
2022-11-05T23:14:46.995Z,6.25
2022-11-05T23:17:13.270Z,6.23
2022-11-05T23:19:39.511Z,6.20
2022-11-05T23:22:05.751Z,6.15
2022-11-05T23:24:31.990Z,6.07
2022-11-05T23:26:58.270Z,5.93
2022-11-05T23:29:24.513Z,5.86
2022-11-05T23:31:50.761Z,5.82
2022-11-05T23:34:17.015Z,5.74
2022-11-05T23:36:43.272Z,5.64
2022-11-05T23:39:09.551Z,5.57
2022-11-05T23:41:35.807Z,5.63
2022-11-05T23:44:02.063Z,5.63
2022-11-05T23:46:28.304Z,5.66
2022-11-05T23:48:54.671Z,5.67
2022-11-05T23:51:20.921Z,5.66
2022-11-05T23:53:47.168Z,5.69
2022-11-05T23:56:13.424Z,5.65
2022-11-05T23:58:39.692Z,5.70
